Time;durP1;ratioP1;P1;durP2;ratioP2;P2;SDS_P1;SDS_P2;PMS_P1;PMS_P2;Temp;Humidity;BMP_temperature;BMP_pressure;BME280_temperature;BME280_humidity;BME280_pressure;Samples;Min_cycle;Max_cycle;Signal;HPM_P1;HPM_P2
2022/07/21 00:00:56;;;;;;;14.40;10.38;;;;;;;20.58;87.98;101738.31;5007707;28;20040;-79
2022/07/21 00:03:21;;;;;;;15.70;10.50;;;;;;;20.54;88.98;101739.53;5007327;28;20037;-79
2022/07/21 00:05:47;;;;;;;15.65;10.25;;;;;;;20.49;88.73;101729.13;5025573;28;20032;-79
2022/07/21 00:08:13;;;;;;;15.80;10.80;;;;;;;20.43;89.04;101727.72;5025568;28;20074;-79
2022/07/21 00:10:39;;;;;;;15.30;11.02;;;;;;;20.36;89.83;101718.41;5024828;28;20044;-79
2022/07/21 00:13:05;;;;;;;19.35;11.90;;;;;;;20.29;90.82;101718.00;5024835;28;20504;-78
2022/07/21 00:15:30;;;;;;;18.23;12.85;;;;;;;20.25;91.55;101707.59;4993114;28;20060;-78
2022/07/21 00:17:57;;;;;;;20.52;12.70;;;;;;;20.19;93.98;101698.13;5024979;28;20040;-78
2022/07/21 00:20:23;;;;;;;20.65;13.18;;;;;;;20.13;95.22;101699.44;5024515;28;20034;-80
2022/07/21 00:22:49;;;;;;;20.45;13.38;;;;;;;20.09;94.20;101692.56;5022864;28;20048;-79
2022/07/21 00:25:15;;;;;;;20.17;12.90;;;;;;;20.05;94.75;101704.53;5024403;28;20029;-79
2022/07/21 00:27:41;;;;;;;20.10;14.10;;;;;;;20.01;95.75;101703.00;5024941;28;20544;-80
2022/07/21 00:30:09;;;;;;;25.60;14.95;;;;;;;19.95;96.32;101693.56;5025091;28;20037;-81
2022/07/21 00:32:34;;;;;;;23.00;15.27;;;;;;;19.90;97.37;101698.38;5008990;28;20041;-80
2022/07/21 00:35:00;;;;;;;26.63;15.45;;;;;;;19.86;97.78;101694.19;5006400;28;20070;-81
2022/07/21 00:37:27;;;;;;;25.13;16.38;;;;;;;19.81;98.08;101686.47;4988899;28;20041;-81
2022/07/21 00:39:53;;;;;;;27.13;15.98;;;;;;;19.78;98.12;101689.38;5024484;28;20424;-79
2022/07/21 00:42:24;;;;;;;28.42;17.25;;;;;;;19.75;100.00;101671.66;5023768;28;20024;-82
2022/07/21 00:44:50;;;;;;;24.77;17.02;;;;;;;19.72;100.00;101673.69;5024701;28;20030;-81
2022/07/21 00:47:19;;;;;;;27.60;17.42;;;;;;;19.70;100.00;101675.63;5006310;28;20376;-81
2022/07/21 00:49:45;;;;;;;30.13;18.38;;;;;;;19.68;100.00;101681.13;5023962;28;21947;-80
2022/07/21 00:52:10;;;;;;;30.25;18.73;;;;;;;19.70;100.00;101686.38;5023914;28;20034;-79
2022/07/21 00:54:36;;;;;;;31.17;18.50;;;;;;;19.69;100.00;101677.47;5023574;28;20118;-79
2022/07/21 00:57:02;;;;;;;32.47;19.27;;;;;;;19.68;100.00;101676.59;5005926;28;20432;-79
2022/07/21 00:59:29;;;;;;;33.08;19.48;;;;;;;19.63;100.00;101669.84;5023988;28;20040;-79
2022/07/21 01:01:55;;;;;;;32.22;19.23;;;;;;;19.62;100.00;101668.97;5024317;28;20528;-81
2022/07/21 01:04:20;;;;;;;32.67;18.40;;;;;;;19.58;100.00;101667.50;5006490;28;20043;-81
2022/07/21 01:06:46;;;;;;;29.77;18.70;;;;;;;19.57;100.00;101665.78;5024033;28;20037;-81
2022/07/21 01:09:12;;;;;;;33.03;19.50;;;;;;;19.56;100.00;101664.06;5005987;28;20033;-81
2022/07/21 01:11:38;;;;;;;28.75;18.63;;;;;;;19.55;100.00;101670.38;5006377;28;20060;-81
2022/07/21 01:14:04;;;;;;;30.83;18.88;;;;;;;19.53;100.00;101664.25;5005834;28;20181;-80
2022/07/21 01:16:31;;;;;;;27.85;17.95;;;;;;;19.53;100.00;101675.00;5022343;28;20472;-81
2022/07/21 01:18:56;;;;;;;27.73;17.45;;;;;;;19.52;100.00;101681.34;5022282;28;20358;-80
2022/07/21 01:21:29;;;;;;;25.05;16.83;;;;;;;19.49;100.00;101679.72;5005346;28;20042;-81
2022/07/21 01:23:55;;;;;;;26.65;16.23;;;;;;;19.50;100.00;101680.59;4990740;28;20031;-81
2022/07/21 01:26:21;;;;;;;28.58;16.48;;;;;;;19.47;100.00;101679.00;5023845;28;20044;-81
2022/07/21 01:28:46;;;;;;;30.92;17.15;;;;;;;19.47;100.00;101679.00;5023878;28;20506;-80
2022/07/21 01:31:12;;;;;;;26.10;15.40;;;;;;;19.46;100.00;101687.16;5023493;28;20033;-80
2022/07/21 01:33:37;;;;;;;27.50;15.82;;;;;;;19.44;100.00;101679.19;5024053;28;20127;-80
2022/07/21 01:36:03;;;;;;;27.17;15.68;;;;;;;19.41;100.00;101679.41;5023791;28;20025;-80
2022/07/21 01:44:14;;;;;;;29.65;16.90;;;;;;;19.34;100.00;101689.72;4960738;28;20035;-81
2022/07/21 01:46:45;;;;;;;28.13;17.73;;;;;;;19.33;100.00;101696.03;4980971;28;20120;-80
2022/07/21 01:49:12;;;;;;;29.30;18.75;;;;;;;19.32;100.00;101702.38;5023348;28;20449;-81
2022/07/21 01:51:40;;;;;;;34.60;20.58;;;;;;;19.32;100.00;101704.19;5023340;28;20034;-80
2022/07/21 01:54:07;;;;;;;31.63;19.98;;;;;;;19.29;100.00;101702.63;5006304;28;20037;-81
2022/07/21 01:56:33;;;;;;;31.27;18.50;;;;;;;19.26;100.00;101708.19;5005246;28;20052;-80
2022/07/21 01:58:59;;;;;;;32.70;19.58;;;;;;;19.22;100.00;101707.53;5022980;28;20026;-79
2022/07/21 02:01:26;;;;;;;28.58;17.92;;;;;;;19.15;100.00;101706.22;5022888;28;20626;-82
2022/07/21 02:03:53;;;;;;;34.92;18.05;;;;;;;19.11;100.00;101694.84;5005380;28;20025;-81
2022/07/21 02:06:18;;;;;;;29.63;18.48;;;;;;;19.08;100.00;101695.06;5022619;28;20040;-81
2022/07/21 02:08:44;;;;;;;35.25;19.40;;;;;;;19.08;100.00;101695.06;4990685;28;20030;-80
2022/07/21 02:11:10;;;;;;;35.97;20.45;;;;;;;19.06;100.00;101696.97;5005152;28;20155;-79
2022/07/21 02:13:36;;;;;;;37.55;21.58;;;;;;;19.03;100.00;101699.88;4961995;28;20068;-78
2022/07/21 02:16:02;;;;;;;37.28;21.40;;;;;;;19.04;100.00;101706.97;5022752;28;20120;-79
2022/07/21 02:18:27;;;;;;;44.47;24.55;;;;;;;19.02;100.00;101699.94;4975019;28;20061;-80
2022/07/21 02:20:54;;;;;;;40.72;23.05;;;;;;;19.04;100.00;101700.72;5020488;28;20082;-80
2022/07/21 02:23:20;;;;;;;41.42;23.48;;;;;;;19.03;100.00;101697.22;4966594;28;20380;-81
2022/07/21 02:25:46;;;;;;;45.55;24.05;;;;;;;19.02;100.00;101695.50;5022630;28;20164;-80
2022/07/21 02:28:12;;;;;;;44.88;25.15;;;;;;;19.00;100.00;101692.00;4990472;28;20492;-80
2022/07/21 02:30:38;;;;;;;49.88;25.50;;;;;;;19.00;100.00;101692.88;5022287;28;20037;-82
2022/07/21 02:33:03;;;;;;;53.13;25.95;;;;;;;19.02;100.00;101687.44;5020429;28;20033;-82
2022/07/21 02:35:29;;;;;;;49.95;26.17;;;;;;;19.05;100.00;101679.16;5022684;28;20036;-82
2022/07/21 02:37:55;;;;;;;45.00;23.42;;;;;;;19.07;100.00;101676.38;5004294;28;20033;-81
2022/07/21 02:40:21;;;;;;;42.88;23.23;;;;;;;19.09;100.00;101675.31;5022596;28;20423;-81
2022/07/21 02:42:47;;;;;;;44.60;22.45;;;;;;;19.10;100.00;101674.34;5004931;28;20164;-81
2022/07/21 02:45:12;;;;;;;40.92;21.75;;;;;;;19.13;100.00;101670.59;5022444;28;20039;-80
2022/07/21 02:47:49;;;;;;;41.45;21.35;;;;;;;19.12;100.00;101664.38;5022812;28;20468;-81
2022/07/21 02:50:18;;;;;;;36.25;20.63;;;;;;;19.10;100.00;101660.94;5021961;28;20041;-81
2022/07/21 02:52:46;;;;;;;39.33;20.40;;;;;;;19.10;100.00;101660.06;5003044;28;20040;-82
2022/07/21 02:55:12;;;;;;;43.03;21.35;;;;;;;19.05;100.00;101657.69;5022050;28;20062;-81
2022/07/21 02:57:43;;;;;;;33.00;18.83;;;;;;;19.08;100.00;101652.16;5003088;28;20029;-81
2022/07/21 03:00:12;;;;;;;35.33;19.02;;;;;;;19.07;100.00;101639.66;5022154;28;20036;-82
2022/07/21 03:02:37;;;;;;;35.28;19.90;;;;;;;19.05;100.00;101641.59;5022116;28;20688;-81
2022/07/21 03:05:04;;;;;;;33.75;19.52;;;;;;;19.01;100.00;101642.72;5003825;28;20038;-81
2022/07/21 03:07:29;;;;;;;34.65;19.08;;;;;;;18.99;100.00;101639.31;5005772;28;20107;-80
2022/07/21 03:09:55;;;;;;;33.10;17.77;;;;;;;18.94;100.00;101633.41;5021928;28;20057;-82
2022/07/21 03:12:21;;;;;;;34.88;18.83;;;;;;;18.93;100.00;101634.34;5006591;28;20060;-82
2022/07/21 03:14:46;;;;;;;30.65;17.33;;;;;;;18.90;100.00;101631.91;5021987;28;20039;-82
2022/07/21 03:17:15;;;;;;;28.45;17.30;;;;;;;18.86;100.00;101631.25;5022122;28;20033;-82
2022/07/21 03:19:40;;;;;;;32.90;18.02;;;;;;;18.86;100.00;101634.78;5004183;28;20037;-81
2022/07/21 03:22:06;;;;;;;34.60;18.02;;;;;;;18.84;100.00;101638.53;5005361;28;20030;-80
2022/07/21 03:24:31;;;;;;;29.40;16.98;;;;;;;18.81;100.00;101634.25;5021711;28;20041;-81
2022/07/21 03:26:57;;;;;;;34.05;17.40;;;;;;;18.80;100.00;101639.72;5021021;28;20123;-82
2022/07/21 03:29:23;;;;;;;30.38;17.15;;;;;;;18.75;100.00;101636.47;5021709;28;20701;-83
2022/07/21 03:31:49;;;;;;;30.77;17.48;;;;;;;18.73;100.00;101636.56;5003500;28;20393;-82
2022/07/21 03:34:17;;;;;;;29.13;16.88;;;;;;;18.73;100.00;101639.25;4990175;28;20154;-81
2022/07/21 03:36:42;;;;;;;33.05;17.40;;;;;;;18.75;100.00;101640.03;5021708;28;20510;-82
2022/07/21 03:39:11;;;;;;;33.45;17.73;;;;;;;18.77;100.00;101634.53;5021867;28;20463;-80
2022/07/21 03:41:36;;;;;;;35.33;17.85;;;;;;;18.76;100.00;101624.78;5003628;28;20037;-82
2022/07/21 03:44:02;;;;;;;36.60;18.77;;;;;;;18.77;100.00;101632.72;5021701;28;20499;-83
2022/07/21 03:46:27;;;;;;;31.20;17.90;;;;;;;18.76;100.00;101622.97;4987122;28;20243;-81
2022/07/21 03:48:53;;;;;;;34.70;19.23;;;;;;;18.75;100.00;101623.94;5021158;28;20131;-81
2022/07/21 03:51:18;;;;;;;34.55;18.83;;;;;;;18.73;100.00;101626.72;5021596;28;20106;-82
2022/07/21 03:53:44;;;;;;;36.50;19.10;;;;;;;18.76;100.00;101617.63;5020737;28;20057;-82
2022/07/21 03:56:09;;;;;;;37.83;19.35;;;;;;;18.76;100.00;101612.25;5021323;28;20049;-82
2022/07/21 03:58:35;;;;;;;38.20;19.80;;;;;;;18.76;100.00;101611.38;5021338;28;20048;-82
2022/07/21 04:01:00;;;;;;;35.65;20.02;;;;;;;18.75;100.00;101607.84;5021917;28;20044;-82
2022/07/21 04:03:26;;;;;;;37.50;19.13;;;;;;;18.75;100.00;101615.91;4961252;28;20041;-81
2022/07/21 04:05:52;;;;;;;36.78;18.60;;;;;;;18.76;100.00;101611.38;5003676;28;20033;-80
2022/07/21 04:08:17;;;;;;;35.65;19.85;;;;;;;18.77;100.00;101616.63;4986840;28;20497;-82
2022/07/21 04:10:43;;;;;;;44.22;21.30;;;;;;;18.79;100.00;101609.34;4987224;28;20036;-80
2022/07/21 04:13:11;;;;;;;41.78;21.17;;;;;;;18.80;100.00;101599.47;5003790;28;20040;-80
2022/07/21 04:15:37;;;;;;;37.95;20.83;;;;;;;18.81;100.00;101601.19;5021542;28;20033;-81
2022/07/21 04:18:03;;;;;;;37.50;21.00;;;;;;;18.82;100.00;101605.59;5005032;28;20032;-81
2022/07/21 04:20:29;;;;;;;36.55;21.17;;;;;;;18.83;100.00;101604.63;5025142;28;20037;-81
2022/07/21 04:22:55;;;;;;;38.42;20.35;;;;;;;18.83;100.00;101605.50;5024922;28;20037;-82
2022/07/21 04:25:21;;;;;;;38.35;21.35;;;;;;;18.83;100.00;101607.31;5024334;28;20041;-81
2022/07/21 04:27:48;;;;;;;37.60;21.08;;;;;;;18.85;100.00;101603.56;5025158;28;20485;-81
2022/07/21 04:30:19;;;;;;;40.15;21.33;;;;;;;18.87;100.00;101606.97;5024409;28;20135;-81
2022/07/21 04:32:44;;;;;;;37.20;20.10;;;;;;;18.87;100.00;101614.19;5024768;28;20025;-81
2022/07/21 04:35:11;;;;;;;37.97;20.90;;;;;;;18.87;100.00;101609.66;5025462;28;20029;-81
2022/07/21 04:37:37;;;;;;;37.60;20.83;;;;;;;18.88;100.00;101610.53;5024465;28;20025;-81
2022/07/21 04:40:05;;;;;;;37.03;20.98;;;;;;;18.86;100.00;101610.63;5006952;28;20060;-82
2022/07/21 04:42:30;;;;;;;36.17;20.52;;;;;;;18.89;100.00;101614.09;5024703;28;20041;-81
2022/07/21 04:44:56;;;;;;;34.05;19.05;;;;;;;18.91;100.00;101612.16;5024510;28;20599;-81
2022/07/21 04:47:21;;;;;;;31.38;18.63;;;;;;;18.86;100.00;101616.00;5024915;28;20060;-82
2022/07/21 04:49:47;;;;;;;32.03;18.90;;;;;;;18.81;100.00;101612.81;5024539;28;20469;-82
2022/07/21 04:52:13;;;;;;;32.95;18.52;;;;;;;18.79;100.00;101616.53;5005965;28;20046;-82
2022/07/21 04:54:39;;;;;;;29.05;17.85;;;;;;;18.78;100.00;101609.47;4988553;28;20049;-82
2022/07/21 04:57:05;;;;;;;27.90;18.42;;;;;;;18.78;100.00;101614.84;5023940;28;20032;-83
2022/07/21 04:59:32;;;;;;;31.27;18.98;;;;;;;18.77;100.00;101616.63;5005825;28;20036;-83
2022/07/21 05:01:57;;;;;;;32.75;19.00;;;;;;;18.78;100.00;101614.84;5008638;28;20689;-83
2022/07/21 05:04:23;;;;;;;35.50;19.73;;;;;;;18.80;100.00;101620.94;5024611;28;20041;-83
2022/07/21 05:06:48;;;;;;;31.35;17.65;;;;;;;18.82;100.00;101617.19;5023758;28;20033;-84
2022/07/21 05:09:14;;;;;;;36.97;19.10;;;;;;;18.82;100.00;101611.84;5024345;28;20646;-83
2022/07/21 05:11:40;;;;;;;31.63;17.55;;;;;;;18.85;100.00;101622.34;5023945;28;20037;-85
2022/07/21 05:14:05;;;;;;;28.95;15.95;;;;;;;18.79;100.00;101614.72;5024370;28;20645;-82
2022/07/21 05:16:31;;;;;;;25.05;14.85;;;;;;;18.76;100.00;101617.63;5005140;28;20552;-83
2022/07/21 05:18:57;;;;;;;23.33;14.45;;;;;;;18.73;100.00;101617.81;4989389;28;20033;-83
2022/07/21 05:21:22;;;;;;;21.35;13.32;;;;;;;18.68;100.00;101619.97;5024061;28;20346;-82
2022/07/21 05:23:48;;;;;;;27.33;12.98;;;;;;;18.66;100.00;101616.50;5024033;28;20034;-82
2022/07/21 05:26:13;;;;;;;20.38;12.57;;;;;;;18.64;100.00;101621.13;5023664;28;20033;-84
2022/07/21 05:28:40;;;;;;;22.15;13.40;;;;;;;18.68;100.00;101609.22;5021885;28;20041;-82
2022/07/21 05:31:07;;;;;;;20.60;10.98;;;;;;;18.72;100.00;101608.03;5021874;28;20044;-82
2022/07/21 05:33:32;;;;;;;19.48;11.93;;;;;;;18.70;100.00;101607.31;5005377;28;20025;-82
2022/07/21 05:35:58;;;;;;;21.48;12.20;;;;;;;18.72;100.00;101611.59;5023215;28;20033;-82
2022/07/21 05:38:23;;;;;;;24.00;14.23;;;;;;;18.74;100.00;101611.47;5023156;28;20025;-81
2022/07/21 05:40:49;;;;;;;23.90;15.40;;;;;;;18.79;100.00;101609.34;5023664;28;20033;-80
2022/07/21 05:43:14;;;;;;;29.27;16.10;;;;;;;18.81;100.00;101617.28;5023465;28;20203;-82
2022/07/21 05:45:40;;;;;;;26.20;15.98;;;;;;;18.80;100.00;101611.06;5023706;28;20035;-81
2022/07/21 05:48:06;;;;;;;26.75;15.70;;;;;;;18.78;100.00;101604.94;5023116;28;20117;-81
2022/07/21 05:50:31;;;;;;;27.25;16.75;;;;;;;18.79;100.00;101606.66;5022638;28;20038;-82
2022/07/21 05:52:57;;;;;;;25.75;14.38;;;;;;;18.75;100.00;101597.13;5022421;28;20039;-80
2022/07/21 05:55:23;;;;;;;20.30;13.25;;;;;;;18.71;100.00;101595.59;4987212;28;20054;-80
2022/07/21 05:57:48;;;;;;;19.98;13.27;;;;;;;18.69;100.00;101602.91;5001584;28;20042;-81
2022/07/21 06:00:17;;;;;;;21.48;12.60;;;;;;;18.68;100.00;101598.50;5002455;28;20041;-80
2022/07/21 06:02:46;;;;;;;16.58;10.88;;;;;;;18.67;100.00;101600.31;5002148;28;20037;-81
2022/07/21 06:05:12;;;;;;;20.95;13.43;;;;;;;18.67;100.00;101597.63;4989345;28;20056;-81
2022/07/21 06:07:39;;;;;;;21.52;13.15;;;;;;;18.67;100.00;101597.63;4987816;28;20551;-82
2022/07/21 06:10:06;;;;;;;22.58;14.48;;;;;;;18.70;100.00;101602.78;5003557;28;20172;-82
2022/07/21 06:12:32;;;;;;;26.95;15.68;;;;;;;18.70;100.00;101596.56;5003417;28;20037;-81
2022/07/21 06:14:57;;;;;;;27.95;17.13;;;;;;;18.70;100.00;101594.72;5004390;28;20161;-80
2022/07/21 06:17:23;;;;;;;32.65;17.90;;;;;;;18.71;100.00;101593.78;5002839;28;20496;-80
2022/07/21 06:19:48;;;;;;;26.73;16.92;;;;;;;18.73;100.00;101594.53;5003257;28;20084;-80
2022/07/21 06:22:14;;;;;;;28.08;17.15;;;;;;;18.77;100.00;101594.31;5002951;28;20065;-79
2022/07/21 06:24:40;;;;;;;29.02;18.45;;;;;;;18.78;100.00;101591.53;5001503;28;20088;-79
2022/07/21 06:27:08;;;;;;;29.40;17.60;;;;;;;18.81;100.00;101585.97;5002442;28;20485;-79
2022/07/21 06:29:34;;;;;;;31.23;18.45;;;;;;;18.86;100.00;101585.66;5003059;28;20460;-80
2022/07/21 06:32:00;;;;;;;34.05;18.48;;;;;;;18.90;100.00;101583.63;5017504;28;20045;-79
2022/07/21 06:34:25;;;;;;;29.42;17.85;;;;;;;18.90;100.00;101578.25;5002691;28;20061;-81
2022/07/21 06:36:51;;;;;;;26.67;16.45;;;;;;;18.89;100.00;101565.81;5003272;28;20398;-80
2022/07/21 06:39:16;;;;;;;25.90;15.45;;;;;;;18.84;100.00;101569.66;4979412;28;20053;-79
2022/07/21 06:41:42;;;;;;;30.05;15.45;;;;;;;18.84;100.00;101571.47;5000915;28;20029;-79
2022/07/21 06:44:09;;;;;;;23.67;15.27;;;;;;;18.83;100.00;101578.66;5002652;28;20040;-79
2022/07/21 06:46:35;;;;;;;21.52;14.18;;;;;;;18.89;100.00;101587.28;4970405;28;20042;-80
2022/07/21 06:49:02;;;;;;;22.88;13.85;;;;;;;18.91;100.00;101590.69;5002261;28;20073;-80
2022/07/21 06:51:28;;;;;;;24.35;14.85;;;;;;;18.92;100.00;101597.78;5000865;28;20037;-79
2022/07/21 06:53:53;;;;;;;25.13;14.07;;;;;;;18.95;100.00;101586.84;5001929;28;20079;-80
2022/07/21 06:56:19;;;;;;;19.73;13.80;;;;;;;18.97;100.00;101591.13;5022145;28;20037;-80
2022/07/21 06:58:46;;;;;;;20.73;12.85;;;;;;;18.98;100.00;101594.66;5021564;28;20034;-81
2022/07/21 07:01:13;;;;;;;20.58;12.52;;;;;;;19.03;100.00;101592.56;4989910;28;20037;-80
2022/07/21 07:03:39;;;;;;;21.38;13.38;;;;;;;19.09;100.00;101593.94;5004343;28;20120;-80
2022/07/21 07:06:05;;;;;;;22.52;13.68;;;;;;;19.11;100.00;101600.94;5003820;28;21551;-80
2022/07/21 07:08:33;;;;;;;23.92;15.43;;;;;;;19.10;100.00;101596.53;5021877;28;20040;-80
2022/07/21 07:10:58;;;;;;;18.48;13.65;;;;;;;19.10;100.00;101601.03;4990569;28;20408;-80
2022/07/21 07:13:24;;;;;;;21.02;14.07;;;;;;;19.07;100.00;101610.16;5004546;28;20693;-81
2022/07/21 07:15:50;;;;;;;21.08;13.07;;;;;;;19.05;100.00;101612.09;5022091;28;20562;-80
2022/07/21 07:18:15;;;;;;;19.23;12.55;;;;;;;19.05;100.00;101620.13;5021924;28;20037;-80
2022/07/21 07:20:41;;;;;;;19.70;13.25;;;;;;;19.07;100.00;101623.56;4989465;28;20039;-80
2022/07/21 07:23:06;;;;;;;17.15;12.32;;;;;;;19.10;100.00;101628.72;5022173;28;20040;-80
2022/07/21 07:25:32;;;;;;;17.90;10.57;;;;;;;19.04;100.00;101623.78;5021955;28;20041;-80
2022/07/21 07:27:58;;;;;;;16.83;11.13;;;;;;;19.02;100.00;101630.19;5022448;28;20033;-81
2022/07/21 07:30:24;;;;;;;22.05;13.10;;;;;;;18.99;100.00;101617.84;4990067;28;20068;-80
2022/07/21 07:32:49;;;;;;;18.60;13.38;;;;;;;18.98;100.00;101629.53;5021871;28;20057;-80
2022/07/21 07:35:18;;;;;;;25.13;15.02;;;;;;;18.98;100.00;101627.75;5004112;28;20049;-80
2022/07/21 07:37:45;;;;;;;22.65;14.60;;;;;;;19.00;100.00;101636.53;5021724;28;20124;-80
2022/07/21 07:40:17;;;;;;;22.20;14.90;;;;;;;18.99;100.00;101642.00;5021326;28;20033;-80
2022/07/21 07:42:43;;;;;;;22.05;15.18;;;;;;;18.99;100.00;101629.44;5021799;28;20042;-80
2022/07/21 07:45:10;;;;;;;26.23;16.17;;;;;;;18.99;100.00;101637.50;5020451;28;20107;-79
2022/07/21 07:47:36;;;;;;;23.67;15.43;;;;;;;18.99;100.00;101636.63;5021676;28;20597;-78
2022/07/21 07:50:03;;;;;;;25.55;16.30;;;;;;;18.98;100.00;101634.91;5021687;28;20037;-78
2022/07/21 07:52:29;;;;;;;26.40;16.80;;;;;;;19.02;100.00;101632.88;5023074;28;20124;-79
2022/07/21 07:54:54;;;;;;;27.90;16.85;;;;;;;19.02;100.00;101620.38;5025426;28;20064;-79
2022/07/21 07:57:20;;;;;;;28.35;17.92;;;;;;;19.06;100.00;101627.22;5026036;28;20041;-79
2022/07/21 07:59:46;;;;;;;28.40;18.20;;;;;;;19.09;100.00;101627.03;5025753;28;20112;-79
2022/07/21 08:02:11;;;;;;;26.13;17.23;;;;;;;19.11;100.00;101634.94;5025759;28;20064;-79
2022/07/21 08:04:37;;;;;;;27.77;17.83;;;;;;;19.11;100.00;101632.25;5006811;28;20105;-79
2022/07/21 08:07:03;;;;;;;30.27;17.58;;;;;;;19.10;100.00;101634.09;5008236;28;20407;-79
2022/07/21 08:09:29;;;;;;;26.40;17.63;;;;;;;19.13;100.00;101633.03;5024967;28;20040;-79
2022/07/21 08:11:55;;;;;;;27.67;17.65;;;;;;;19.16;100.00;101634.66;5008522;28;20041;-79
2022/07/21 08:14:21;;;;;;;28.45;18.00;;;;;;;19.14;100.00;101632.91;5025430;28;20476;-79
2022/07/21 08:16:46;;;;;;;27.77;17.60;;;;;;;19.14;100.00;101630.22;4993243;28;20496;-79
2022/07/21 08:19:12;;;;;;;27.30;17.02;;;;;;;19.13;100.00;101631.19;5024791;28;20444;-79
2022/07/21 08:21:38;;;;;;;24.73;16.55;;;;;;;19.12;100.00;101639.38;5025111;28;20033;-78
2022/07/21 08:24:04;;;;;;;28.13;17.10;;;;;;;19.13;100.00;101633.88;5005866;28;20099;-78
2022/07/21 08:26:29;;;;;;;28.92;18.50;;;;;;;19.18;100.00;101640.75;5025350;28;20036;-78
2022/07/21 08:28:56;;;;;;;32.00;19.20;;;;;;;19.17;100.00;101647.09;5025210;28;20037;-79
2022/07/21 08:31:24;;;;;;;24.77;15.20;;;;;;;19.18;100.00;101638.06;5007216;28;20551;-79
2022/07/21 08:33:51;;;;;;;18.90;12.48;;;;;;;19.11;100.00;101635.81;5024551;28;20035;-78
2022/07/21 08:36:18;;;;;;;18.00;12.38;;;;;;;19.06;100.00;101632.59;5025036;28;20230;-79
2022/07/21 08:38:44;;;;;;;20.15;12.70;;;;;;;19.04;100.00;101631.84;5024894;28;20052;-79
2022/07/21 08:41:10;;;;;;;18.67;12.88;;;;;;;19.04;100.00;101631.84;5025119;28;20559;-79
2022/07/21 08:43:35;;;;;;;20.90;14.23;;;;;;;19.05;100.00;101646.09;5024676;28;20025;-79
2022/07/21 08:46:01;;;;;;;21.42;14.60;;;;;;;19.03;100.00;101637.31;5024698;28;20126;-80
2022/07/21 08:48:29;;;;;;;24.17;16.05;;;;;;;19.03;100.00;101640.00;5023799;28;20033;-78
2022/07/21 08:50:55;;;;;;;23.70;15.70;;;;;;;19.02;100.00;101639.16;5023905;28;20591;-78
2022/07/21 08:53:22;;;;;;;25.35;16.52;;;;;;;19.04;100.00;101642.56;5022574;28;20037;-79
2022/07/21 08:55:47;;;;;;;23.67;15.90;;;;;;;19.04;100.00;101645.25;5023996;28;20045;-80
2022/07/21 08:58:13;;;;;;;22.23;14.93;;;;;;;19.00;100.00;101641.03;5006709;28;20040;-79
2022/07/21 09:00:45;;;;;;;20.92;14.52;;;;;;;18.99;100.00;101647.34;5023960;28;20036;-82
2022/07/21 09:03:15;;;;;;;21.02;15.20;;;;;;;18.92;100.00;101646.94;5023535;28;20025;-79
2022/07/21 09:05:42;;;;;;;23.23;14.52;;;;;;;18.86;100.00;101648.19;5024459;28;20044;-80
2022/07/21 09:08:08;;;;;;;27.17;16.10;;;;;;;18.76;100.00;101657.84;5024403;28;20041;-85
2022/07/21 09:10:33;;;;;;;25.98;15.88;;;;;;;18.62;100.00;101653.41;5008845;28;20099;-85
2022/07/21 09:13:01;;;;;;;34.45;16.23;;;;;;;18.49;100.00;101655.16;4995126;28;20041;-82
2022/07/21 09:15:28;;;;;;;25.70;16.17;;;;;;;18.40;100.00;101656.63;5024196;28;20032;-81
2022/07/21 09:18:09;;;;;;;20.38;13.35;;;;;;;18.28;100.00;101658.31;5024316;28;20037;-82
2022/07/21 09:20:35;;;;;;;21.25;11.38;;;;;;;18.19;100.00;101657.97;4979270;28;20159;-84
2022/07/21 09:23:05;;;;;;;13.18;9.57;;;;;;;18.14;100.00;101648.50;5008251;28;20033;-82
2022/07/21 09:25:42;;;;;;;14.35;10.13;;;;;;;18.04;100.00;101657.09;5023476;28;20702;-87
2022/07/21 09:28:21;;;;;;;16.83;10.63;;;;;;;18.00;100.00;101655.59;5024037;28;20053;-84
2022/07/21 09:30:59;;;;;;;20.73;11.38;;;;;;;17.99;100.00;101667.25;5024212;28;20072;-82
2022/07/21 09:33:44;;;;;;;17.30;11.63;;;;;;;18.02;100.00;101653.66;5005566;28;20040;-85
2022/07/21 09:36:13;;;;;;;18.23;11.73;;;;;;;18.04;100.00;101654.41;5023965;28;20047;-85
2022/07/21 09:38:54;;;;;;;19.70;12.88;;;;;;;18.07;100.00;101655.22;4987909;28;20053;-86
2022/07/21 09:41:22;;;;;;;22.35;13.27;;;;;;;18.11;100.00;101657.59;4991829;28;20079;-85
2022/07/21 09:43:50;;;;;;;16.55;11.77;;;;;;;18.19;100.00;101660.63;5023457;28;20705;-85
2022/07/21 09:46:29;;;;;;;19.00;12.25;;;;;;;18.26;100.00;101655.72;5023610;28;20037;-83
2022/07/21 09:49:04;;;;;;;19.40;12.52;;;;;;;18.31;100.00;101658.13;5022774;28;20031;-83
2022/07/21 09:51:31;;;;;;;18.85;12.50;;;;;;;18.33;100.00;101658.88;5023217;28;20033;-82
2022/07/21 09:54:05;;;;;;;21.23;14.15;;;;;;;18.37;100.00;101662.22;5023041;28;20051;-82
2022/07/21 09:56:35;;;;;;;20.15;13.27;;;;;;;18.37;100.00;101663.09;5007033;28;20049;-84
2022/07/21 09:59:02;;;;;;;22.15;13.18;;;;;;;18.37;100.00;101664.91;5023347;28;20119;-84
2022/07/21 10:01:29;;;;;;;20.52;13.05;;;;;;;18.44;100.00;101655.47;5022993;28;20091;-84
2022/07/21 10:03:55;;;;;;;21.23;13.07;;;;;;;18.52;100.00;101661.19;4988332;28;20061;-84
2022/07/21 10:06:30;;;;;;;24.45;14.60;;;;;;;18.59;100.00;101664.34;5005151;28;20526;-83
2022/07/21 10:08:57;;;;;;;23.38;13.13;;;;;;;18.59;100.00;101667.88;5022765;28;20092;-83
2022/07/21 10:11:24;;;;;;;20.70;13.68;;;;;;;18.63;100.00;101668.50;5023779;28;20056;-84
2022/07/21 10:13:49;;;;;;;25.48;14.23;;;;;;;18.71;100.00;101665.34;5023133;28;20254;-83
2022/07/21 10:16:15;;;;;;;25.77;14.82;;;;;;;18.82;100.00;101670.84;5022701;28;20041;-83
2022/07/21 10:19:13;;;;;;;26.27;14.57;;;;;;;18.85;100.00;101670.63;5020801;28;20488;-83
2022/07/21 10:22:00;;;;;;;25.20;13.93;;;;;;;18.81;100.00;101666.44;5006877;28;20029;-82
2022/07/21 10:24:28;;;;;;;24.88;13.60;;;;;;;18.80;100.00;101670.06;5004390;28;20132;-83
2022/07/21 10:27:00;;;;;;;27.35;14.70;;;;;;;18.84;100.00;101670.72;5022659;28;20072;-83
2022/07/21 10:29:47;;;;;;;25.98;14.35;;;;;;;18.86;100.00;101672.34;5022676;28;20036;-83
2022/07/21 10:32:25;;;;;;;26.50;14.27;;;;;;;18.89;100.00;101665.91;5022344;28;20594;-82
2022/07/21 10:34:51;;;;;;;28.65;14.27;;;;;;;18.84;100.00;101671.59;5022449;28;20143;-84
2022/07/21 10:37:40;;;;;;;24.98;13.77;;;;;;;18.77;100.00;101675.66;5022477;28;20029;-84
2022/07/21 10:40:10;;;;;;;21.05;13.02;;;;;;;18.66;100.00;101681.72;5006118;28;20057;-84
2022/07/21 10:42:36;;;;;;;21.13;13.35;;;;;;;18.62;100.00;101677.53;5004608;28;20039;-84
2022/07/21 10:45:29;;;;;;;18.50;13.23;;;;;;;18.58;100.00;101681.38;4974637;28;20037;-83
2022/07/21 10:47:57;;;;;;;17.80;12.52;;;;;;;18.54;100.00;101686.09;5022223;28;20033;-83
2022/07/21 10:50:31;;;;;;;18.73;12.82;;;;;;;18.51;100.00;101672.88;5004477;28;20503;-83
2022/07/21 10:52:58;;;;;;;19.70;13.85;;;;;;;18.51;100.00;101675.56;5021913;28;20048;-82
2022/07/21 10:55:27;;;;;;;19.23;13.52;;;;;;;18.57;100.00;101674.28;5021808;28;20172;-81
2022/07/21 10:58:14;;;;;;;22.70;14.18;;;;;;;18.67;100.00;101682.56;5004094;28;20500;-83
2022/07/21 11:00:56;;;;;;;19.75;13.02;;;;;;;18.63;100.00;101678.41;5022397;28;20037;-82
2022/07/21 11:03:33;;;;;;;17.95;12.30;;;;;;;18.59;100.00;101683.09;5022030;28;20086;-81
2022/07/21 11:06:24;;;;;;;18.02;13.00;;;;;;;18.61;100.00;101680.34;4988499;28;20029;-83
2022/07/21 11:09:19;;;;;;;18.35;12.82;;;;;;;18.57;100.00;101675.16;5021952;28;20641;-82